createdAt,value
2018-02-07T00:00:39.702Z,92.92
2018-02-07T00:03:06.883Z,93.38
2018-02-07T00:05:36.597Z,94.34
2018-02-07T00:08:03.842Z,93.34
2018-02-07T00:10:30.682Z,94.42
2018-02-07T00:12:57.955Z,93.26
2018-02-07T00:15:25.245Z,93.83
2018-02-07T00:17:52.185Z,95.00
2018-02-07T00:20:19.245Z,95.34
2018-02-07T00:22:46.496Z,95.72
2018-02-07T00:25:13.790Z,95.95
2018-02-07T00:27:40.989Z,95.17
2018-02-07T00:30:08.507Z,95.06
2018-02-07T00:32:35.554Z,94.10
2018-02-07T00:35:02.727Z,94.36
2018-02-07T00:37:29.645Z,95.21
2018-02-07T00:39:57.233Z,96.50
2018-02-07T00:42:24.576Z,96.68
2018-02-07T00:44:51.657Z,96.79
2018-02-07T00:47:18.682Z,96.73
2018-02-07T00:49:46.023Z,96.33
2018-02-07T00:52:13.153Z,96.58
2018-02-07T00:54:40.022Z,96.86
2018-02-07T00:57:07.037Z,97.11
2018-02-07T00:59:34.037Z,96.90
2018-02-07T01:02:01.262Z,96.76
2018-02-07T01:04:28.654Z,97.19
2018-02-07T01:06:55.515Z,97.03
2018-02-07T01:09:22.343Z,96.82
2018-02-07T01:11:49.546Z,96.66
2018-02-07T01:14:16.694Z,96.63
2018-02-07T01:16:43.877Z,96.36
2018-02-07T01:19:10.925Z,96.38
2018-02-07T01:21:38.198Z,95.04
2018-02-07T01:24:05.058Z,95.14
2018-02-07T01:26:32.003Z,95.64
2018-02-07T01:28:59.305Z,96.88
2018-02-07T01:31:26.402Z,97.12
2018-02-07T01:33:53.753Z,97.33
2018-02-07T01:36:21.113Z,97.40
2018-02-07T01:38:48.301Z,97.33
2018-02-07T01:41:15.690Z,97.54
2018-02-07T01:43:42.614Z,97.95
2018-02-07T01:46:09.734Z,97.73
2018-02-07T01:48:37.136Z,98.24
2018-02-07T01:51:04.231Z,98.55
2018-02-07T01:53:31.430Z,97.94
2018-02-07T01:55:58.590Z,97.79
2018-02-07T01:58:25.749Z,98.46
2018-02-07T02:00:53.178Z,98.86
2018-02-07T02:03:20.374Z,98.68
2018-02-07T02:05:47.458Z,98.65
2018-02-07T02:08:14.614Z,99.12
2018-02-07T02:10:41.794Z,98.81
2018-02-07T02:13:08.881Z,98.68
2018-02-07T02:15:36.027Z,98.40
2018-02-07T02:18:03.294Z,98.16
2018-02-07T02:20:30.544Z,97.82
2018-02-07T02:22:57.621Z,98.72
2018-02-07T02:25:24.428Z,97.94
2018-02-07T02:27:51.606Z,98.52
2018-02-07T02:30:18.810Z,97.88
2018-02-07T02:32:46.048Z,98.39
2018-02-07T02:35:13.669Z,97.93
2018-02-07T02:37:41.026Z,97.24
2018-02-07T02:40:08.142Z,96.70
2018-02-07T02:42:35.054Z,96.58
2018-02-07T02:45:02.226Z,97.98
2018-02-07T02:47:29.141Z,97.71
2018-02-07T02:49:56.482Z,96.73
2018-02-07T02:52:23.433Z,96.59
2018-02-07T02:54:50.760Z,97.85
2018-02-07T02:57:17.662Z,97.66
2018-02-07T02:59:44.690Z,97.47
2018-02-07T03:02:12.109Z,98.23
2018-02-07T03:04:39.473Z,98.44
2018-02-07T03:07:06.382Z,97.90
2018-02-07T03:09:33.757Z,98.24
2018-02-07T03:12:01.261Z,99.21
2018-02-07T03:14:28.402Z,98.96
2018-02-07T03:16:55.342Z,98.57
2018-02-07T03:19:22.309Z,97.98
2018-02-07T03:21:49.624Z,97.31
2018-02-07T03:24:17.233Z,97.56
2018-02-07T03:26:44.112Z,97.24
2018-02-07T03:29:11.573Z,97.78
2018-02-07T03:31:38.870Z,96.67
2018-02-07T03:34:06.282Z,97.13
2018-02-07T03:36:33.360Z,97.25
2018-02-07T03:39:00.743Z,97.36
2018-02-07T03:41:28.450Z,97.25
2018-02-07T03:43:56.773Z,97.27
2018-02-07T03:46:25.100Z,97.50
2018-02-07T03:48:53.255Z,97.68
2018-02-07T03:51:21.222Z,97.67
2018-02-07T03:53:48.846Z,97.64
2018-02-07T03:56:17.458Z,97.78
2018-02-07T03:58:44.863Z,97.84
2018-02-07T04:01:11.982Z,98.40
2018-02-07T04:03:39.294Z,98.40
2018-02-07T04:06:06.531Z,97.86
2018-02-07T04:08:33.931Z,97.64
2018-02-07T04:11:01.038Z,97.71
2018-02-07T04:13:28.289Z,97.89
2018-02-07T04:15:55.938Z,97.97
2018-02-07T04:18:22.849Z,97.95
2018-02-07T04:20:49.797Z,97.86
2018-02-07T04:23:16.879Z,97.66
2018-02-07T04:25:43.649Z,97.93
2018-02-07T04:28:10.638Z,97.26
2018-02-07T04:30:37.899Z,97.19
2018-02-07T04:33:04.875Z,96.94
2018-02-07T04:35:32.319Z,96.88
2018-02-07T04:37:59.547Z,97.18
2018-02-07T04:40:26.810Z,97.33
2018-02-07T04:42:54.419Z,97.39
2018-02-07T04:45:21.601Z,95.09
2018-02-07T04:47:48.656Z,96.12
2018-02-07T04:50:15.675Z,95.18
2018-02-07T04:52:42.554Z,92.37
2018-02-07T04:55:10.026Z,93.49
2018-02-07T04:57:37.138Z,96.66
2018-02-07T05:00:04.361Z,96.75
2018-02-07T05:02:31.807Z,96.67
2018-02-07T05:04:58.734Z,97.06
2018-02-07T05:07:26.179Z,97.61
2018-02-07T05:09:53.382Z,97.44
2018-02-07T05:12:21.505Z,98.11
2018-02-07T05:14:48.597Z,98.62
2018-02-07T05:17:15.906Z,98.35
2018-02-07T05:19:42.913Z,97.86
2018-02-07T05:22:10.510Z,97.05
2018-02-07T05:24:37.701Z,96.63
2018-02-07T05:27:04.781Z,96.98
2018-02-07T05:29:31.765Z,96.80
2018-02-07T05:31:59.394Z,97.42
2018-02-07T05:34:26.906Z,96.94
2018-02-07T05:36:54.051Z,96.63
2018-02-07T05:39:21.429Z,96.37
2018-02-07T05:41:48.915Z,97.05
2018-02-07T05:44:16.137Z,97.55
2018-02-07T05:46:43.482Z,97.71
2018-02-07T05:49:10.582Z,97.88
2018-02-07T05:51:38.168Z,97.64
2018-02-07T05:54:05.831Z,97.84
2018-02-07T05:56:32.719Z,96.01
2018-02-07T05:58:59.998Z,97.01
2018-02-07T06:01:27.334Z,97.31
2018-02-07T06:03:54.516Z,97.33
2018-02-07T06:06:21.734Z,97.50
2018-02-07T06:08:48.698Z,96.55
2018-02-07T06:11:16.188Z,96.33
2018-02-07T06:13:43.363Z,97.03
2018-02-07T06:16:10.581Z,94.08
2018-02-07T06:18:37.833Z,93.69
2018-02-07T06:21:05.253Z,92.64
2018-02-07T06:23:32.456Z,90.25
2018-02-07T06:25:59.622Z,91.36
2018-02-07T06:28:26.985Z,90.94
2018-02-07T06:30:54.314Z,90.97
2018-02-07T06:33:21.509Z,90.44
2018-02-07T06:35:48.509Z,90.76
2018-02-07T06:38:15.521Z,89.66
2018-02-07T06:40:42.894Z,90.93
2018-02-07T06:43:10.007Z,90.94
2018-02-07T06:45:37.222Z,91.89
2018-02-07T06:48:04.230Z,90.65
2018-02-07T06:50:31.459Z,92.03
2018-02-07T06:52:58.682Z,92.50
2018-02-07T06:55:26.056Z,91.74
2018-02-07T06:57:53.098Z,90.14
2018-02-07T07:00:20.484Z,87.28
2018-02-07T07:02:47.493Z,86.23
2018-02-07T07:05:14.833Z,85.71
2018-02-07T07:07:42.244Z,84.79
2018-02-07T07:10:10.003Z,84.55
2018-02-07T07:12:37.075Z,85.06
2018-02-07T07:15:04.173Z,83.74
2018-02-07T07:17:31.317Z,84.12
2018-02-07T07:19:58.528Z,82.16
2018-02-07T07:22:25.938Z,81.11
2018-02-07T07:24:52.817Z,82.62
2018-02-07T07:27:20.274Z,85.67
2018-02-07T07:29:47.239Z,84.54
2018-02-07T07:32:14.346Z,81.87
2018-02-07T07:34:41.497Z,81.49
2018-02-07T07:37:08.757Z,81.72
2018-02-07T07:39:35.766Z,82.04
2018-02-07T07:42:03.078Z,82.97
2018-02-07T07:44:30.449Z,85.12
2018-02-07T07:46:57.382Z,86.30
2018-02-07T07:49:24.406Z,84.47
2018-02-07T07:51:51.659Z,88.10
2018-02-07T07:54:18.825Z,88.21
2018-02-07T07:56:46.102Z,88.61
2018-02-07T07:59:13.286Z,89.72
2018-02-07T08:01:40.562Z,89.94
2018-02-07T08:04:07.851Z,89.83
2018-02-07T08:06:34.921Z,89.53
2018-02-07T08:09:01.965Z,89.42
2018-02-07T08:11:28.944Z,88.73
2018-02-07T08:13:56.358Z,90.09
2018-02-07T08:16:23.526Z,90.96
2018-02-07T08:18:50.647Z,91.91
2018-02-07T08:21:17.914Z,91.62
2018-02-07T08:23:45.014Z,90.13
2018-02-07T08:26:12.486Z,91.23
2018-02-07T08:28:39.525Z,91.35
2018-02-07T08:31:06.941Z,91.32
2018-02-07T08:33:34.370Z,89.46
2018-02-07T08:36:01.710Z,89.42
2018-02-07T08:38:28.957Z,90.25
2018-02-07T08:40:56.038Z,90.82
2018-02-07T08:43:23.694Z,90.85
2018-02-07T08:45:51.040Z,90.63
2018-02-07T08:48:18.433Z,89.95
2018-02-07T08:50:45.485Z,90.38
2018-02-07T08:53:13.216Z,90.20
2018-02-07T08:55:40.413Z,89.63
2018-02-07T08:58:08.006Z,89.16
2018-02-07T09:00:35.054Z,89.41
2018-02-07T09:03:02.218Z,88.23
2018-02-07T09:05:29.671Z,87.44
2018-02-07T09:07:58.010Z,87.30
2018-02-07T09:10:25.345Z,87.63
2018-02-07T09:12:52.560Z,88.02
2018-02-07T09:15:20.065Z,88.17
2018-02-07T09:17:47.588Z,87.49
2018-02-07T09:20:14.614Z,87.48
2018-02-07T09:22:42.031Z,87.35
2018-02-07T09:25:09.214Z,87.34
2018-02-07T09:27:36.758Z,88.28
2018-02-07T09:30:04.365Z,89.30
2018-02-07T09:32:31.578Z,88.37
2018-02-07T09:34:58.959Z,88.56
2018-02-07T09:37:26.417Z,87.83
2018-02-07T09:39:53.883Z,87.61
2018-02-07T09:42:21.223Z,87.24
2018-02-07T09:44:48.900Z,85.14
2018-02-07T09:47:16.274Z,84.27
2018-02-07T09:49:44.122Z,83.81
2018-02-07T09:52:11.290Z,80.89
2018-02-07T09:54:38.824Z,77.30
2018-02-07T09:57:05.753Z,79.49
2018-02-07T09:59:32.850Z,78.18
2018-02-07T10:02:00.371Z,77.91
2018-02-07T10:04:28.249Z,78.79
2018-02-07T10:06:55.718Z,77.98
2018-02-07T10:09:23.130Z,77.14
2018-02-07T10:11:50.547Z,77.85
2018-02-07T10:14:18.055Z,77.88
2018-02-07T10:16:45.186Z,78.57
2018-02-07T10:19:12.252Z,79.79
2018-02-07T10:21:39.433Z,77.84
2018-02-07T10:24:06.563Z,77.45
2018-02-07T10:26:33.790Z,74.14
2018-02-07T10:29:01.047Z,76.63
2018-02-07T10:31:28.474Z,75.08
2018-02-07T10:33:55.858Z,76.17
2018-02-07T10:36:23.311Z,75.25
2018-02-07T10:38:50.987Z,74.34
2018-02-07T10:41:18.206Z,73.70
2018-02-07T10:43:45.594Z,74.03
2018-02-07T10:46:12.994Z,75.48
2018-02-07T10:48:40.668Z,77.84
2018-02-07T10:51:07.677Z,72.55
2018-02-07T10:53:34.810Z,73.54
2018-02-07T10:56:01.946Z,76.72
2018-02-07T10:58:29.211Z,73.50
2018-02-07T11:00:56.385Z,73.35
2018-02-07T11:03:23.443Z,73.29
2018-02-07T11:05:50.597Z,73.88
2018-02-07T11:08:17.736Z,72.44
2018-02-07T11:10:45.186Z,73.10
2018-02-07T11:13:12.474Z,75.92
2018-02-07T11:15:39.518Z,78.04
2018-02-07T11:18:06.597Z,76.55
2018-02-07T11:20:33.736Z,79.60
2018-02-07T11:23:00.670Z,77.83
2018-02-07T11:25:28.033Z,79.33
2018-02-07T11:27:55.536Z,81.05
2018-02-07T11:30:23.014Z,81.87
2018-02-07T11:32:50.330Z,82.88
2018-02-07T11:35:17.198Z,81.38
2018-02-07T11:37:44.414Z,80.88
2018-02-07T11:40:11.505Z,80.26
2018-02-07T11:42:38.520Z,80.52
2018-02-07T11:45:05.545Z,79.84
2018-02-07T11:47:32.718Z,77.62
2018-02-07T11:50:00.460Z,77.52
2018-02-07T11:52:27.935Z,77.76
2018-02-07T11:54:55.345Z,80.25
2018-02-07T11:57:22.936Z,80.04
2018-02-07T11:59:50.170Z,79.95
2018-02-07T12:02:17.470Z,79.94
2018-02-07T12:04:44.773Z,79.35
2018-02-07T12:07:12.858Z,80.74
2018-02-07T12:09:40.149Z,79.64
2018-02-07T12:12:07.872Z,79.96
2018-02-07T12:14:35.521Z,79.73
2018-02-07T12:17:03.708Z,81.05
2018-02-07T12:19:31.142Z,81.79
2018-02-07T12:21:58.744Z,81.46
2018-02-07T12:24:25.971Z,81.31
2018-02-07T12:26:53.172Z,81.02
2018-02-07T12:29:20.553Z,80.94
2018-02-07T12:31:47.859Z,80.43
2018-02-07T12:34:15.330Z,79.58
2018-02-07T12:36:42.489Z,79.23
2018-02-07T12:39:09.694Z,78.94
2018-02-07T12:41:36.798Z,80.15
2018-02-07T12:44:05.028Z,80.33
2018-02-07T12:46:32.596Z,80.50
2018-02-07T12:49:00.154Z,81.09
2018-02-07T12:51:27.733Z,80.51
2018-02-07T12:53:55.031Z,80.76
2018-02-07T12:56:22.935Z,80.97
2018-02-07T12:58:50.263Z,79.56
2018-02-07T13:01:17.533Z,78.63
2018-02-07T13:03:44.725Z,78.24
2018-02-07T13:06:12.353Z,78.13
2018-02-07T13:08:39.654Z,78.77
2018-02-07T13:11:07.289Z,78.02
2018-02-07T13:13:34.963Z,79.18
2018-02-07T13:16:02.390Z,80.34
2018-02-07T13:18:29.531Z,78.04
2018-02-07T13:20:56.821Z,77.62
2018-02-07T13:23:23.949Z,75.93
2018-02-07T13:25:51.129Z,75.21
2018-02-07T13:28:18.294Z,80.22
2018-02-07T13:30:45.658Z,76.45
2018-02-07T13:33:13.234Z,80.21
2018-02-07T13:35:40.512Z,81.67
2018-02-07T13:38:07.650Z,80.59
2018-02-07T13:40:34.649Z,79.99
2018-02-07T13:43:02.014Z,81.32
2018-02-07T13:45:32.738Z,82.18
2018-02-07T13:48:00.233Z,79.94
2018-02-07T13:50:27.522Z,81.66
2018-02-07T13:52:54.991Z,80.39
2018-02-07T13:55:22.041Z,80.61
2018-02-07T13:57:49.582Z,80.52
2018-02-07T14:00:16.822Z,81.42
2018-02-07T14:02:44.095Z,83.97
2018-02-07T14:05:11.138Z,81.13
2018-02-07T14:07:38.190Z,79.43
2018-02-07T14:10:06.447Z,81.00
2018-02-07T14:12:33.936Z,80.41
2018-02-07T14:15:01.465Z,78.35
2018-02-07T14:17:28.718Z,78.72
2018-02-07T14:19:55.966Z,78.03
2018-02-07T14:22:22.991Z,77.12
2018-02-07T14:24:50.180Z,80.71
2018-02-07T14:27:17.222Z,79.54
2018-02-07T14:29:44.586Z,79.88
2018-02-07T14:32:11.814Z,82.90
2018-02-07T14:34:38.873Z,83.61
2018-02-07T14:37:06.182Z,82.64
2018-02-07T14:39:34.197Z,82.28
2018-02-07T14:42:01.593Z,81.11
2018-02-07T14:44:28.875Z,82.39
2018-02-07T14:46:56.293Z,82.64
2018-02-07T14:49:23.554Z,85.21
2018-02-07T14:51:50.951Z,85.82
2018-02-07T14:54:19.147Z,84.17
2018-02-07T14:56:46.314Z,84.35
2018-02-07T14:59:13.870Z,85.99
2018-02-07T15:01:41.319Z,85.93
2018-02-07T15:04:09.353Z,85.60
2018-02-07T15:06:37.156Z,84.03
2018-02-07T15:09:04.826Z,84.88
2018-02-07T15:11:31.974Z,84.77
2018-02-07T15:13:59.302Z,86.27
2018-02-07T15:16:26.254Z,87.19
2018-02-07T15:18:53.947Z,87.30
2018-02-07T15:21:21.294Z,87.70
2018-02-07T15:23:48.419Z,88.70
2018-02-07T15:26:15.904Z,86.92
2018-02-07T15:28:43.352Z,88.01
2018-02-07T15:31:10.803Z,87.16
2018-02-07T15:33:38.014Z,88.28
2018-02-07T15:36:05.081Z,88.25
2018-02-07T15:38:32.346Z,87.44
2018-02-07T15:40:59.510Z,88.89
2018-02-07T15:43:26.811Z,87.90
2018-02-07T15:45:54.226Z,89.44
2018-02-07T15:48:21.372Z,90.71
2018-02-07T15:50:48.546Z,90.12
2018-02-07T15:53:15.393Z,89.05
2018-02-07T15:55:42.908Z,89.78
2018-02-07T15:58:10.374Z,89.01
2018-02-07T16:00:37.428Z,89.52
2018-02-07T16:03:04.539Z,89.59
2018-02-07T16:05:31.634Z,88.78
2018-02-07T16:07:58.950Z,89.43
2018-02-07T16:10:25.878Z,88.35
2018-02-07T16:12:53.310Z,89.00
2018-02-07T16:15:20.652Z,88.69
2018-02-07T16:17:48.107Z,87.18
2018-02-07T16:20:15.341Z,88.26
2018-02-07T16:22:42.786Z,87.15
2018-02-07T16:25:10.098Z,87.38
2018-02-07T16:27:37.202Z,90.12
2018-02-07T16:30:04.321Z,89.06
2018-02-07T16:32:31.446Z,88.30
2018-02-07T16:34:58.862Z,86.78
2018-02-07T16:37:26.154Z,86.82
2018-02-07T16:39:53.885Z,86.52
2018-02-07T16:42:21.189Z,87.53
2018-02-07T16:44:48.202Z,87.29
2018-02-07T16:47:15.341Z,88.05
2018-02-07T16:49:42.774Z,87.90
2018-02-07T16:52:10.352Z,88.34
2018-02-07T16:54:37.565Z,88.35
2018-02-07T16:57:04.855Z,88.25
2018-02-07T16:59:32.086Z,88.96
2018-02-07T17:01:59.303Z,88.82
2018-02-07T17:04:26.642Z,88.34
2018-02-07T17:06:54.158Z,88.36
2018-02-07T17:09:21.732Z,86.83
2018-02-07T17:11:49.242Z,88.81
2018-02-07T17:14:16.719Z,86.74
2018-02-07T17:16:44.467Z,85.74
2018-02-07T17:19:11.665Z,87.29
2018-02-07T17:21:38.965Z,87.00
2018-02-07T17:24:06.464Z,87.78
2018-02-07T17:26:33.779Z,86.48
2018-02-07T17:29:01.346Z,87.62
2018-02-07T17:31:28.751Z,88.02
2018-02-07T17:33:56.029Z,87.77
2018-02-07T17:36:23.685Z,86.65
2018-02-07T17:38:51.099Z,88.12
2018-02-07T17:41:18.202Z,86.95
2018-02-07T17:43:45.706Z,87.31
2018-02-07T17:46:13.011Z,87.86
2018-02-07T17:48:40.382Z,88.38
2018-02-07T17:51:07.341Z,88.13
2018-02-07T17:53:34.599Z,87.88
2018-02-07T17:56:01.650Z,85.83
2018-02-07T17:58:28.731Z,86.00
2018-02-07T18:00:55.735Z,86.21
2018-02-07T18:03:23.782Z,87.90
2018-02-07T18:05:51.414Z,86.96
2018-02-07T18:08:18.868Z,88.10
2018-02-07T18:10:46.135Z,87.44
2018-02-07T18:13:13.402Z,88.09
2018-02-07T18:15:40.724Z,88.48
2018-02-07T18:18:08.094Z,87.26
2018-02-07T18:20:35.200Z,87.71
2018-02-07T18:23:02.734Z,89.02
2018-02-07T18:25:30.093Z,89.17
2018-02-07T18:27:57.398Z,88.16
2018-02-07T18:30:25.286Z,88.09
2018-02-07T18:32:52.819Z,88.61
2018-02-07T18:35:19.776Z,88.27
2018-02-07T18:37:47.022Z,89.12
2018-02-07T18:40:14.290Z,88.94
2018-02-07T18:42:41.533Z,89.28
2018-02-07T18:45:08.825Z,89.22
2018-02-07T18:47:36.174Z,89.12
2018-02-07T18:50:03.475Z,90.49
2018-02-07T18:52:30.597Z,89.55
2018-02-07T18:54:57.708Z,91.33
2018-02-07T18:57:25.314Z,91.24
2018-02-07T18:59:52.424Z,91.27
2018-02-07T19:02:19.999Z,91.29
2018-02-07T19:04:47.218Z,88.73
2018-02-07T19:07:14.666Z,88.80
2018-02-07T19:09:41.866Z,91.22
2018-02-07T19:12:08.825Z,90.37
2018-02-07T19:14:35.806Z,90.56
2018-02-07T19:17:03.091Z,91.05
2018-02-07T19:19:30.011Z,90.11
2018-02-07T19:21:57.283Z,89.81
2018-02-07T19:24:24.537Z,88.60
2018-02-07T19:26:51.856Z,90.48
2018-02-07T19:29:19.097Z,90.86
2018-02-07T19:31:46.330Z,90.15
2018-02-07T19:34:13.845Z,90.25
2018-02-07T19:36:41.369Z,89.62
2018-02-07T19:39:08.562Z,87.97
2018-02-07T19:41:35.989Z,88.36
2018-02-07T19:44:03.893Z,86.75
2018-02-07T19:46:31.135Z,86.16
2018-02-07T19:48:58.225Z,87.48
2018-02-07T19:51:25.749Z,87.88
2018-02-07T19:53:53.198Z,87.64
2018-02-07T19:56:20.685Z,87.38
2018-02-07T19:58:48.378Z,89.13
2018-02-07T20:01:15.782Z,89.22
2018-02-07T20:03:43.247Z,88.46
2018-02-07T20:06:10.626Z,89.33
2018-02-07T20:08:38.106Z,90.11
2018-02-07T20:11:05.137Z,89.76
2018-02-07T20:13:32.396Z,89.90
2018-02-07T20:15:59.760Z,89.85
2018-02-07T20:18:26.983Z,89.91
2018-02-07T20:20:54.735Z,87.35
2018-02-07T20:23:21.938Z,89.26
2018-02-07T20:25:49.310Z,90.84
2018-02-07T20:28:16.953Z,90.29
2018-02-07T20:30:44.325Z,91.09
2018-02-07T20:33:11.558Z,91.41
2018-02-07T20:35:38.834Z,89.52
2018-02-07T20:38:05.959Z,89.91
2018-02-07T20:40:33.598Z,92.41
2018-02-07T20:43:00.900Z,92.70
2018-02-07T20:45:28.507Z,92.48
2018-02-07T20:47:55.678Z,91.14
2018-02-07T20:50:23.270Z,89.71
2018-02-07T20:52:50.750Z,90.87
2018-02-07T20:55:17.730Z,92.94
2018-02-07T20:57:45.354Z,92.60
2018-02-07T21:00:12.591Z,91.46
2018-02-07T21:02:40.845Z,90.23
2018-02-07T21:05:08.279Z,91.01
2018-02-07T21:07:35.817Z,89.16
2018-02-07T21:10:03.381Z,89.62
2018-02-07T21:12:30.425Z,91.78
2018-02-07T21:14:57.765Z,92.72
2018-02-07T21:17:32.402Z,91.53
2018-02-07T21:20:00.109Z,90.22
2018-02-07T21:22:27.277Z,91.10
2018-02-07T21:24:54.250Z,90.81
2018-02-07T21:27:22.222Z,90.12
2018-02-07T21:29:49.526Z,90.69
2018-02-07T21:32:17.794Z,90.15
2018-02-07T21:34:45.081Z,92.11
2018-02-07T21:34:49.761Z,54.05
2018-02-07T21:37:12.594Z,90.46
2018-02-07T21:37:16.779Z,54.02
2018-02-07T21:39:40.152Z,89.54
2018-02-07T21:42:07.624Z,91.45
2018-02-07T21:44:35.326Z,93.24
2018-02-07T21:47:02.820Z,92.75
2018-02-07T21:49:30.120Z,94.27
2018-02-07T21:51:57.579Z,95.26
2018-02-07T21:54:24.992Z,95.69
2018-02-07T21:56:52.849Z,95.33
2018-02-07T21:59:20.095Z,94.05
2018-02-07T22:01:47.405Z,94.57
2018-02-07T22:04:14.739Z,94.65
2018-02-07T22:06:42.090Z,94.99
2018-02-07T22:09:09.398Z,95.58
2018-02-07T22:11:37.077Z,95.52
2018-02-07T22:14:04.376Z,94.89
2018-02-07T22:16:31.562Z,94.85
2018-02-07T22:18:58.870Z,94.71
2018-02-07T22:21:26.271Z,94.74
2018-02-07T22:23:53.886Z,94.58
2018-02-07T22:26:21.269Z,95.10
2018-02-07T22:28:48.498Z,95.06
2018-02-07T22:31:15.930Z,95.18
2018-02-07T22:33:43.498Z,92.91
2018-02-07T22:36:10.503Z,94.74
2018-02-07T22:38:37.669Z,94.44
2018-02-07T22:41:05.334Z,94.76
2018-02-07T22:43:32.821Z,95.13
2018-02-07T22:46:00.628Z,94.62
2018-02-07T22:48:28.006Z,93.53
2018-02-07T22:50:55.675Z,92.88
2018-02-07T22:53:23.613Z,95.80
2018-02-07T22:55:50.966Z,96.59
2018-02-07T22:58:18.264Z,97.15
2018-02-07T23:00:45.386Z,93.09
2018-02-07T23:03:12.741Z,93.33
2018-02-07T23:05:40.245Z,91.25
2018-02-07T23:08:07.425Z,94.15
2018-02-07T23:10:34.856Z,94.96
2018-02-07T23:13:02.048Z,91.91
2018-02-07T23:15:29.235Z,91.78
2018-02-07T23:17:56.791Z,92.72
2018-02-07T23:20:23.900Z,92.61
2018-02-07T23:22:51.162Z,93.48
2018-02-07T23:25:18.473Z,91.90
2018-02-07T23:27:46.114Z,91.93
2018-02-07T23:30:13.747Z,91.40
2018-02-07T23:32:41.114Z,90.74
2018-02-07T23:35:08.210Z,90.82
2018-02-07T23:37:35.892Z,92.09
2018-02-07T23:40:03.298Z,92.64
2018-02-07T23:42:30.697Z,94.58
2018-02-07T23:44:58.301Z,94.55
2018-02-07T23:47:25.498Z,94.31
2018-02-07T23:49:52.845Z,95.87
2018-02-07T23:52:20.196Z,95.38
2018-02-07T23:54:47.686Z,93.25
2018-02-07T23:57:14.986Z,95.17
2018-02-07T23:59:42.131Z,95.64
